Couderay, WI (54828)

10:58 AM CDT on September 25, 2016 (GMT -0500)
Callahan Lake | | Change Station

Elev 1358 ft 45.99 °N, 91.24 °W | Updated 16 seconds ago

Light Rain
Light Rain Mist
63.3 °F
Feels Like 63.3 °F
N
0.0
Wind Variable Wind from West
Gusts 0.0 mph

Today
High -- | Low -- °F
--% Chance of Precip.
Yesterday
High -- | Low -- °F
Precip. -- in
Pressure 29.85 in
Visibility 4.0 miles
Clouds Overcast 700 ft
Dew Point 62 °F
Humidity 97%
Rainfall 0.05 in
Snow Depth Not available.
6:56 AM 6:56 PM
Waning Crescent, 27% visible
METAR KHYR 251553Z AUTO 17009G17KT 4SM -RA BR OVC007 18/17 A2985 RMK AO2 RAB23 CIG 006V009 SLP107 P0000 T01780167
Pressure 29.85 in
Visibility 4.0 miles
Clouds Overcast 700 ft
Dew Point 62 °F
Humidity 97%
Rainfall 0.05 in
Snow Depth Not available.
6:56 AM 6:56 PM
Waning Crescent, 27% visible
METAR KHYR 251553Z AUTO 17009G17KT 4SM -RA BR OVC007 18/17 A2985 RMK AO2 RAB23 CIG 006V009 SLP107 P0000 T01780167

10-Day Weather Forecast

Almanac

Astronomy

Sep. 25, 2016 Rise Set
Actual Time
Civil Twilight
Nautical Twilight
Astronomical Twilight
Moon
Length of Visible Light
Length of Day
Tomorrow will be .
, % of the Moon is Illuminated

Today's Extremes

State Highs State Lows

Community

WunderPhotos

Upload Photos

1,941,644 photos uploaded!

WunderBlog® & News

Nearby

Air Quality

  Air Quality AQ Index Pollutant
Not available.

Snow Depth

Station Depth Elevation

Earthquake Activity

City Distance Mag. Time & Date
Minimum magnitude displayed is 2.5.

Coastal Water Temperatures

Place Temperature

Stations

Nearby Weather Stations

Station Location Temp. Windchill Dew Point Humidity Wind Precip. Elev Updated Type
                   

Watches & Warnings

There are currently no watches in effect.